Time;durP1;ratioP1;P1;durP2;ratioP2;P2;SDS_P1;SDS_P2;PMS_P1;PMS_P2;Temp;Humidity;BMP_temperature;BMP_pressure;BME280_temperature;BME280_humidity;BME280_pressure;Samples;Min_cycle;Max_cycle;Signal;HPM_P1;HPM_P2
2022/11/18 00:00:51;;;;;;;17.95;13.93;;;7.30;99.90;;;;;;5111289;28;20426;-68
2022/11/18 00:03:18;;;;;;;22.80;13.40;;;7.30;99.90;;;;;;5111667;28;20035;-68
2022/11/18 00:05:52;;;;;;;19.90;14.00;;;7.30;99.90;;;;;;5111331;28;20081;-68
2022/11/18 00:08:20;;;;;;;18.08;13.00;;;7.30;99.90;;;;;;5111714;28;20122;-69
2022/11/18 00:10:48;;;;;;;18.38;14.25;;;7.30;99.90;;;;;;5112999;28;20047;-68
2022/11/18 00:16:04;;;;;;;22.08;15.13;;;7.30;99.90;;;;;;5111418;28;20376;-68
2022/11/18 00:18:30;;;;;;;19.80;13.65;;;7.30;99.90;;;;;;5112787;28;20046;-69
2022/11/18 00:21:04;;;;;;;19.52;14.82;;;7.30;99.90;;;;;;5110510;28;20447;-68
2022/11/18 00:23:29;;;;;;;21.30;14.93;;;7.30;99.90;;;;;;5111441;28;20039;-68
2022/11/18 00:26:00;;;;;;;20.48;14.88;;;7.40;99.90;;;;;;5112747;28;20105;-68
2022/11/18 00:28:26;;;;;;;22.13;15.75;;;7.30;99.90;;;;;;5093567;28;20051;-69
2022/11/18 00:30:51;;;;;;;20.27;14.82;;;7.40;99.90;;;;;;5111273;28;20044;-68
2022/11/18 00:33:17;;;;;;;20.70;15.00;;;7.30;99.90;;;;;;5094096;28;20056;-68
2022/11/18 00:35:42;;;;;;;25.02;16.50;;;7.40;99.90;;;;;;5093531;28;20071;-68
2022/11/18 00:38:08;;;;;;;25.15;16.95;;;7.40;99.90;;;;;;5112787;28;20031;-68
2022/11/18 00:40:34;;;;;;;26.23;18.70;;;7.40;99.90;;;;;;5112429;28;20064;-68
2022/11/18 00:42:59;;;;;;;22.50;16.15;;;7.40;99.90;;;;;;5110584;28;20421;-68
2022/11/18 00:45:25;;;;;;;23.38;17.23;;;7.40;99.90;;;;;;5112266;28;20146;-68
2022/11/18 00:47:50;;;;;;;23.77;16.48;;;7.40;99.90;;;;;;5094143;28;20087;-68
2022/11/18 00:50:16;;;;;;;23.90;17.60;;;7.40;99.90;;;;;;5111405;28;20047;-69
2022/11/18 00:52:42;;;;;;;25.35;18.13;;;7.40;99.90;;;;;;5111128;28;20043;-69
2022/11/18 00:55:08;;;;;;;22.70;16.08;;;7.50;99.90;;;;;;5110519;28;20040;-69
2022/11/18 00:57:33;;;;;;;23.45;17.73;;;7.40;99.90;;;;;;5093876;28;20126;-68
2022/11/18 00:59:59;;;;;;;27.40;19.23;;;7.50;99.90;;;;;;5094133;28;20035;-69
2022/11/18 01:02:25;;;;;;;22.52;17.08;;;7.50;99.90;;;;;;5093220;28;20079;-69
2022/11/18 01:04:50;;;;;;;24.70;16.92;;;7.50;99.90;;;;;;5110932;28;20067;-69
2022/11/18 01:07:16;;;;;;;26.98;19.20;;;7.50;99.90;;;;;;5111903;28;20100;-68
2022/11/18 01:09:42;;;;;;;24.80;18.35;;;7.50;99.90;;;;;;5111388;28;20046;-69
2022/11/18 01:14:54;;;;;;;29.02;19.35;;;7.50;99.90;;;;;;5110731;28;20051;-69
2022/11/18 01:17:19;;;;;;;26.65;18.55;;;7.50;99.90;;;;;;5109912;28;20077;-68
2022/11/18 01:19:45;;;;;;;27.15;16.58;;;7.50;99.90;;;;;;5110994;28;20407;-69
2022/11/18 01:22:11;;;;;;;24.42;16.42;;;7.60;99.90;;;;;;5111131;28;20473;-68
2022/11/18 01:24:36;;;;;;;26.48;17.67;;;7.50;99.90;;;;;;5111244;28;20510;-69
2022/11/18 01:27:03;;;;;;;31.65;18.95;;;7.50;99.90;;;;;;5110793;28;20043;-68
2022/11/18 01:29:28;;;;;;;27.33;17.85;;;7.60;99.90;;;;;;5093963;28;20410;-68
2022/11/18 01:31:54;;;;;;;24.15;17.65;;;7.60;99.90;;;;;;5092779;28;20073;-68
2022/11/18 01:34:20;;;;;;;25.92;17.17;;;7.60;99.90;;;;;;5113882;28;20126;-69
2022/11/18 01:36:45;;;;;;;27.90;18.17;;;7.60;99.90;;;;;;5114378;28;20039;-68
2022/11/18 01:39:11;;;;;;;24.65;17.55;;;7.60;99.90;;;;;;5114296;28;20071;-69
2022/11/18 01:41:37;;;;;;;30.75;19.73;;;7.60;99.90;;;;;;5114576;28;20031;-68
2022/11/18 01:44:24;;;;;;;28.90;18.90;;;7.60;99.90;;;;;;5097443;28;20130;-69
2022/11/18 01:46:50;;;;;;;28.40;18.33;;;7.50;99.90;;;;;;5114098;28;20213;-68
2022/11/18 01:49:16;;;;;;;26.38;19.10;;;7.60;99.90;;;;;;5109486;27;20118;-68
2022/11/18 01:51:50;;;;;;;26.35;17.35;;;7.50;99.90;;;;;;5089547;28;20036;-69
2022/11/18 01:54:30;;;;;;;29.08;17.70;;;7.60;99.90;;;;;;5115390;28;20058;-67
2022/11/18 01:57:01;;;;;;;26.42;17.52;;;7.60;99.90;;;;;;5114249;28;20047;-69
2022/11/18 01:59:31;;;;;;;26.42;18.38;;;7.60;99.90;;;;;;5114598;28;20039;-69
2022/11/18 02:01:59;;;;;;;30.30;19.10;;;7.60;99.90;;;;;;5114483;28;20123;-68
2022/11/18 02:04:26;;;;;;;28.23;17.35;;;7.60;99.90;;;;;;5114827;28;20035;-69
2022/11/18 02:06:54;;;;;;;27.95;18.75;;;7.60;99.90;;;;;;5096626;28;20388;-69
2022/11/18 02:09:20;;;;;;;28.98;18.52;;;7.60;99.90;;;;;;5115333;28;20043;-68
2022/11/18 02:11:49;;;;;;;26.95;19.38;;;7.60;99.90;;;;;;5113958;28;20077;-68
2022/11/18 02:14:18;;;;;;;28.27;17.83;;;7.60;99.90;;;;;;5114332;28;20047;-68
2022/11/18 02:16:59;;;;;;;30.88;20.55;;;7.50;99.90;;;;;;5114135;28;20046;-69
2022/11/18 02:19:36;;;;;;;33.05;20.23;;;7.60;99.90;;;;;;5112732;28;20076;-69
2022/11/18 02:22:20;;;;;;;30.60;20.38;;;7.60;99.90;;;;;;5114232;28;20050;-68
2022/11/18 02:25:17;;;;;;;32.50;19.15;;;7.60;99.90;;;;;;5113633;28;20055;-69
2022/11/18 02:28:08;;;;;;;33.97;20.08;;;7.60;99.90;;;;;;5114911;28;20044;-69
2022/11/18 02:30:44;;;;;;;29.92;19.00;;;7.60;99.90;;;;;;5097608;28;20047;-69
2022/11/18 02:33:16;;;;;;;29.95;18.70;;;7.50;99.90;;;;;;5114420;28;20411;-68
2022/11/18 02:35:56;;;;;;;32.63;19.35;;;7.50;99.90;;;;;;5096162;28;20050;-69
2022/11/18 02:38:25;;;;;;;32.70;19.52;;;7.50;99.90;;;;;;5096927;28;20036;-69
2022/11/18 02:41:05;;;;;;;33.58;21.15;;;7.60;99.90;;;;;;5112654;28;20047;-68
2022/11/18 02:43:36;;;;;;;33.47;19.02;;;7.50;99.90;;;;;;5113684;28;20050;-69
2022/11/18 02:46:07;;;;;;;28.70;19.35;;;7.50;99.90;;;;;;5095902;28;20189;-69
2022/11/18 02:48:36;;;;;;;31.10;21.20;;;7.50;99.90;;;;;;5112792;28;20388;-69
2022/11/18 02:51:06;;;;;;;32.28;20.80;;;7.50;99.90;;;;;;5113243;28;20499;-69
2022/11/18 02:53:33;;;;;;;32.85;20.13;;;7.50;99.90;;;;;;5114848;28;20047;-69
2022/11/18 02:56:01;;;;;;;34.30;20.95;;;7.50;99.90;;;;;;5112020;28;20077;-68
2022/11/18 02:58:26;;;;;;;32.88;19.42;;;7.50;99.90;;;;;;5113545;28;20035;-69
2022/11/18 03:00:57;;;;;;;33.20;20.70;;;7.50;99.90;;;;;;5113912;28;20487;-69
2022/11/18 03:03:27;;;;;;;31.33;19.92;;;7.50;99.90;;;;;;5113618;28;20157;-69
2022/11/18 03:06:04;;;;;;;29.10;19.60;;;7.50;99.90;;;;;;5113241;28;20031;-68
2022/11/18 03:08:43;;;;;;;34.63;20.58;;;7.50;99.90;;;;;;5096298;28;20039;-69
2022/11/18 03:11:13;;;;;;;28.17;18.95;;;7.50;99.90;;;;;;5112976;28;20052;-68
2022/11/18 03:13:53;;;;;;;30.60;19.92;;;7.50;99.90;;;;;;5114538;28;20039;-68
2022/11/18 03:16:28;;;;;;;30.85;20.98;;;7.50;99.90;;;;;;5113545;28;20081;-68
2022/11/18 03:19:29;;;;;;;34.40;21.58;;;7.50;99.90;;;;;;5112444;28;20035;-69
2022/11/18 03:22:22;;;;;;;35.00;20.63;;;7.50;99.90;;;;;;5051581;28;20048;-69
2022/11/18 03:24:58;;;;;;;30.05;18.90;;;7.50;99.90;;;;;;5112084;28;20114;-68
2022/11/18 03:27:34;;;;;;;33.50;21.67;;;7.50;99.90;;;;;;5096330;28;20046;-69
2022/11/18 03:30:11;;;;;;;34.80;21.45;;;7.50;99.90;;;;;;5094807;28;20043;-68
2022/11/18 03:32:40;;;;;;;34.17;20.10;;;7.40;99.90;;;;;;5095308;28;20488;-68
2022/11/18 03:35:13;;;;;;;31.45;20.10;;;7.40;99.90;;;;;;5113108;28;20055;-69
2022/11/18 03:37:40;;;;;;;34.08;20.20;;;7.40;99.90;;;;;;5113161;28;20127;-69
2022/11/18 03:40:16;;;;;;;29.60;19.58;;;7.40;99.90;;;;;;5112093;28;20040;-68
2022/11/18 03:42:46;;;;;;;30.50;21.58;;;7.40;99.90;;;;;;5112356;28;20031;-69
2022/11/18 03:45:26;;;;;;;34.95;20.35;;;7.40;99.90;;;;;;5112837;28;20046;-69
2022/11/18 03:47:59;;;;;;;34.00;19.73;;;7.40;99.90;;;;;;5111802;28;20047;-69
2022/11/18 03:50:34;;;;;;;32.05;20.23;;;7.40;99.90;;;;;;5112504;28;20515;-68
2022/11/18 03:53:01;;;;;;;32.45;20.52;;;7.40;99.90;;;;;;5110973;28;20346;-69
2022/11/18 03:55:32;;;;;;;29.42;19.85;;;7.40;99.90;;;;;;5112676;28;20575;-69
2022/11/18 03:58:36;;;;;;;36.33;20.63;;;7.40;99.90;;;;;;5112299;28;20472;-69
2022/11/18 04:01:14;;;;;;;32.45;19.40;;;7.40;99.90;;;;;;5030016;28;20099;-68
2022/11/18 04:03:40;;;;;;;29.98;18.50;;;7.40;99.90;;;;;;5102308;28;20112;-69
2022/11/18 04:06:17;;;;;;;34.75;22.02;;;7.40;99.90;;;;;;5110720;28;20479;-68
2022/11/18 04:08:45;;;;;;;34.35;20.50;;;7.40;99.90;;;;;;5112950;28;20043;-69
2022/11/18 04:14:08;;;;;;;;;;;7.40;99.90;;;;;;5110918;28;20096;-68
2022/11/18 04:16:44;;;;;;;31.83;18.20;;;7.30;99.90;;;;;;5094958;28;19916;-68
2022/11/18 04:19:10;;;;;;;31.30;19.63;;;7.30;99.90;;;;;;5110629;28;20126;-68
2022/11/18 04:21:35;;;;;;;32.83;18.85;;;7.30;99.90;;;;;;5113450;28;20051;-68
2022/11/18 04:24:01;;;;;;;30.88;18.90;;;7.30;99.90;;;;;;5094281;28;20361;-68
2022/11/18 04:26:27;;;;;;;31.00;18.42;;;7.20;99.90;;;;;;5111307;28;20090;-68
2022/11/18 04:28:52;;;;;;;32.80;20.33;;;7.20;99.90;;;;;;5112435;28;20072;-68
2022/11/18 04:31:18;;;;;;;34.83;18.27;;;7.20;99.90;;;;;;5094776;28;20047;-68
2022/11/18 04:33:44;;;;;;;32.15;18.02;;;7.20;99.90;;;;;;5111770;28;20073;-68
2022/11/18 04:36:09;;;;;;;32.05;19.95;;;7.20;99.90;;;;;;5111203;28;20096;-69
2022/11/18 04:38:35;;;;;;;29.90;18.13;;;7.20;99.90;;;;;;5111635;28;20122;-68
2022/11/18 04:41:01;;;;;;;27.08;17.92;;;7.20;99.90;;;;;;5112354;28;20147;-69
2022/11/18 04:43:26;;;;;;;32.72;19.77;;;7.20;99.90;;;;;;5112897;28;20378;-68
2022/11/18 04:45:52;;;;;;;28.48;17.27;;;7.20;99.90;;;;;;5110825;28;20045;-68
2022/11/18 04:48:18;;;;;;;29.55;18.05;;;7.20;99.90;;;;;;5111892;28;20045;-68
2022/11/18 04:50:43;;;;;;;28.23;19.23;;;7.20;99.90;;;;;;5111778;28;20047;-69
2022/11/18 04:53:09;;;;;;;32.42;19.40;;;7.10;99.90;;;;;;5111115;28;20074;-68
2022/11/18 04:55:35;;;;;;;28.42;17.48;;;7.10;99.90;;;;;;5110433;28;20040;-68
2022/11/18 04:58:01;;;;;;;28.88;17.23;;;7.10;99.90;;;;;;5110852;28;20044;-67
2022/11/18 05:00:27;;;;;;;29.50;16.50;;;7.10;99.90;;;;;;5094866;28;20362;-68
2022/11/18 05:02:53;;;;;;;31.42;18.08;;;7.10;99.90;;;;;;5092778;28;20488;-69
2022/11/18 05:05:18;;;;;;;28.20;16.70;;;7.10;99.90;;;;;;5111681;28;20404;-68
2022/11/18 05:07:44;;;;;;;32.00;17.75;;;7.10;99.90;;;;;;5113788;28;20097;-68
2022/11/18 05:10:10;;;;;;;30.27;18.65;;;7.10;99.90;;;;;;5115613;28;20415;-68
2022/11/18 05:12:47;;;;;;;27.35;17.35;;;7.10;99.90;;;;;;5115290;28;20139;-69
2022/11/18 05:15:14;;;;;;;29.35;17.98;;;7.10;99.90;;;;;;5115860;28;20388;-68
2022/11/18 05:17:39;;;;;;;27.25;16.83;;;7.10;99.90;;;;;;5115401;28;20069;-68
2022/11/18 05:20:05;;;;;;;27.55;16.50;;;7.10;99.90;;;;;;5097831;28;20399;-68
2022/11/18 05:22:31;;;;;;;28.77;18.58;;;7.10;99.90;;;;;;5114391;28;20118;-68
2022/11/18 05:24:57;;;;;;;32.53;18.35;;;7.10;99.90;;;;;;5116012;28;20192;-69
2022/11/18 05:27:22;;;;;;;33.85;18.10;;;7.00;99.90;;;;;;5116367;28;20451;-69
2022/11/18 05:29:48;;;;;;;26.70;17.45;;;7.00;99.90;;;;;;5114335;28;20051;-68
2022/11/18 05:32:14;;;;;;;26.80;17.30;;;7.10;99.90;;;;;;5116306;28;20089;-69
2022/11/18 05:34:41;;;;;;;28.35;17.58;;;7.00;99.90;;;;;;5114736;28;20047;-68
2022/11/18 05:37:06;;;;;;;27.75;18.33;;;7.10;99.90;;;;;;5115298;28;20040;-68
2022/11/18 05:39:32;;;;;;;43.85;26.90;;;7.10;99.90;;;;;;5113566;28;20481;-68
2022/11/18 05:44:43;;;;;;;59.80;38.77;;;7.00;99.90;;;;;;5113788;28;20043;-69
2022/11/18 05:47:09;;;;;;;43.67;28.45;;;7.00;99.90;;;;;;5113397;28;20448;-68
2022/11/18 05:49:34;;;;;;;31.85;20.15;;;7.00;99.90;;;;;;5113833;28;20130;-68
2022/11/18 05:52:01;;;;;;;29.70;19.02;;;7.00;99.90;;;;;;5112615;28;20124;-69
2022/11/18 05:54:27;;;;;;;26.30;17.58;;;7.00;99.90;;;;;;5112247;28;20078;-68
2022/11/18 05:56:52;;;;;;;27.35;15.80;;;7.00;99.90;;;;;;5111067;28;20561;-68
2022/11/18 05:59:18;;;;;;;26.50;16.25;;;7.00;99.90;;;;;;5111484;28;20074;-68
2022/11/18 06:02:02;;;;;;;25.85;16.15;;;7.00;99.90;;;;;;5112889;28;20036;-68
2022/11/18 06:04:28;;;;;;;22.40;15.75;;;7.00;99.90;;;;;;5111784;28;20043;-69
2022/11/18 06:07:02;;;;;;;23.38;16.23;;;7.00;99.90;;;;;;5111344;28;20051;-68
2022/11/18 06:09:32;;;;;;;25.65;16.10;;;7.00;99.90;;;;;;5111914;28;20051;-68
2022/11/18 06:12:01;;;;;;;26.92;15.80;;;7.00;99.90;;;;;;5110956;28;20035;-68
2022/11/18 06:14:34;;;;;;;23.02;16.13;;;7.00;99.90;;;;;;5111589;28;20693;-68
2022/11/18 06:17:03;;;;;;;25.15;15.45;;;6.90;99.90;;;;;;5111327;28;20118;-68
2022/11/18 06:19:30;;;;;;;26.88;16.27;;;6.90;99.90;;;;;;5093288;28;20054;-68
2022/11/18 06:21:55;;;;;;;25.92;16.20;;;6.90;99.90;;;;;;5112371;28;20047;-68
2022/11/18 06:24:21;;;;;;;24.60;15.55;;;7.00;99.90;;;;;;5111524;28;20047;-68
2022/11/18 06:26:47;;;;;;;26.73;15.32;;;6.90;99.90;;;;;;5110544;28;20047;-68
2022/11/18 06:29:15;;;;;;;25.85;16.33;;;6.90;99.90;;;;;;5111336;28;20062;-69
2022/11/18 06:31:41;;;;;;;24.33;15.68;;;6.90;99.90;;;;;;5112561;28;20114;-68
2022/11/18 06:34:07;;;;;;;23.92;15.90;;;6.90;99.90;;;;;;5109922;28;20540;-68
2022/11/18 06:36:32;;;;;;;23.98;15.40;;;6.90;99.90;;;;;;5110344;28;20130;-68
2022/11/18 06:39:05;;;;;;;24.85;15.88;;;6.90;99.90;;;;;;5110862;28;20043;-69
2022/11/18 06:41:32;;;;;;;25.48;15.10;;;6.90;99.90;;;;;;5111786;28;20039;-68
2022/11/18 06:43:57;;;;;;;26.42;15.45;;;6.90;99.90;;;;;;5109154;28;20031;-67
2022/11/18 06:49:07;;;;;;;28.38;16.33;;;6.90;99.90;;;;;;5110972;28;20058;-68
2022/11/18 06:51:33;;;;;;;24.73;15.13;;;6.90;99.90;;;;;;5110731;28;20396;-68
2022/11/18 06:53:59;;;;;;;29.83;17.20;;;6.80;99.90;;;;;;5092478;28;20381;-68
2022/11/18 06:56:24;;;;;;;26.45;15.65;;;6.80;99.90;;;;;;5112306;28;20118;-68
2022/11/18 06:58:54;;;;;;;28.80;17.05;;;6.80;99.90;;;;;;5111470;28;20410;-68
2022/11/18 07:01:28;;;;;;;31.15;18.13;;;6.80;99.90;;;;;;5093091;28;20061;-68
2022/11/18 07:03:56;;;;;;;27.90;16.08;;;6.80;99.90;;;;;;5110795;28;20036;-68
2022/11/18 07:06:24;;;;;;;27.13;16.75;;;6.80;99.90;;;;;;5112154;28;20118;-67
2022/11/18 07:08:50;;;;;;;29.60;16.40;;;6.80;99.90;;;;;;5109509;28;20488;-69
2022/11/18 07:11:18;;;;;;;27.60;16.42;;;6.80;99.90;;;;;;5111792;28;20058;-68
2022/11/18 07:13:44;;;;;;;50.97;30.63;;;6.80;99.90;;;;;;5105354;28;20035;-67
2022/11/18 07:16:13;;;;;;;40.22;23.30;;;6.70;99.90;;;;;;5108244;28;20067;-68
2022/11/18 07:18:40;;;;;;;75.47;40.22;;;6.70;99.90;;;;;;5110890;28;20086;-68
2022/11/18 07:21:08;;;;;;;34.05;19.80;;;6.70;99.90;;;;;;5109550;28;20429;-68
2022/11/18 07:23:59;;;;;;;49.88;27.90;;;6.70;99.90;;;;;;5109797;28;20219;-68
2022/11/18 07:26:25;;;;;;;37.05;22.00;;;6.70;99.90;;;;;;5093038;28;20043;-68
2022/11/18 07:28:52;;;;;;;34.38;20.60;;;6.70;99.90;;;;;;5110405;28;20092;-68
2022/11/18 07:31:19;;;;;;;36.08;21.20;;;6.70;99.90;;;;;;5100667;28;20117;-69
2022/11/18 07:33:46;;;;;;;31.25;17.88;;;6.70;99.90;;;;;;5098544;28;20369;-69
2022/11/18 07:36:13;;;;;;;39.88;24.67;;;6.70;99.90;;;;;;5089781;28;20552;-63
2022/11/18 07:38:39;;;;;;;38.40;22.45;;;6.70;99.90;;;;;;5089689;28;20044;-63
2022/11/18 07:41:07;;;;;;;49.58;30.25;;;6.70;99.90;;;;;;5089129;28;20397;-62
2022/11/18 07:43:34;;;;;;;50.65;31.20;;;6.70;99.90;;;;;;5075343;28;20048;-63
2022/11/18 07:46:18;;;;;;;31.08;19.70;;;6.70;99.90;;;;;;5089915;28;20048;-63
2022/11/18 07:48:45;;;;;;;45.65;27.38;;;6.70;99.90;;;;;;5098226;28;20048;-62
2022/11/18 07:51:12;;;;;;;40.38;23.58;;;6.70;99.90;;;;;;5108578;28;20056;-63
2022/11/18 07:53:38;;;;;;;28.33;17.88;;;6.70;99.90;;;;;;5100195;28;20062;-62
2022/11/18 07:56:05;;;;;;;31.08;18.23;;;6.70;99.90;;;;;;5089752;28;20043;-63
2022/11/18 07:58:30;;;;;;;33.72;20.77;;;6.70;99.90;;;;;;5071603;28;20052;-62
2022/11/18 08:00:56;;;;;;;38.22;19.67;;;6.70;99.90;;;;;;5088038;28;20040;-62
2022/11/18 08:03:26;;;;;;;30.23;17.05;;;6.70;99.90;;;;;;5104629;28;20181;-62
2022/11/18 08:05:57;;;;;;;65.43;35.25;;;6.70;99.90;;;;;;5107892;28;20126;-62
2022/11/18 08:08:22;;;;;;;45.67;24.50;;;6.70;99.90;;;;;;5086097;28;20047;-62
2022/11/18 08:10:48;;;;;;;43.63;22.88;;;6.70;99.90;;;;;;5095144;28;20043;-68
2022/11/18 08:13:14;;;;;;;33.60;18.13;;;6.60;99.90;;;;;;5108298;28;20404;-70
2022/11/18 08:15:41;;;;;;;52.22;27.48;;;6.70;99.90;;;;;;5109069;28;20040;-70
2022/11/18 08:18:06;;;;;;;48.33;26.17;;;6.70;99.90;;;;;;5110013;28;20039;-69
2022/11/18 08:20:34;;;;;;;29.48;17.67;;;6.70;99.90;;;;;;5108157;28;20031;-69
2022/11/18 08:22:59;;;;;;;35.15;17.38;;;6.70;99.90;;;;;;5108619;28;20477;-69
2022/11/18 08:25:25;;;;;;;33.50;19.13;;;6.60;99.90;;;;;;5109666;28;20043;-70
2022/11/18 08:27:51;;;;;;;28.65;16.75;;;6.60;99.90;;;;;;5091528;28;20105;-69
2022/11/18 08:30:17;;;;;;;29.45;18.52;;;6.60;99.90;;;;;;5109014;28;20053;-69
2022/11/18 08:32:43;;;;;;;40.15;20.15;;;6.60;99.90;;;;;;5108828;28;20039;-69
2022/11/18 08:35:09;;;;;;;34.78;16.25;;;6.60;99.90;;;;;;5107242;28;20058;-69
2022/11/18 08:37:34;;;;;;;30.95;17.77;;;6.70;99.90;;;;;;5108747;28;20134;-69
2022/11/18 08:40:00;;;;;;;39.58;19.02;;;6.70;99.90;;;;;;5107065;28;20655;-69
2022/11/18 08:42:25;;;;;;;31.00;19.52;;;6.70;99.90;;;;;;5107039;28;20059;-69
2022/11/18 08:44:51;;;;;;;26.63;14.77;;;6.70;99.90;;;;;;5108881;28;20385;-69
2022/11/18 08:47:17;;;;;;;24.35;15.13;;;6.70;99.90;;;;;;5107779;28;20044;-69
2022/11/18 08:49:42;;;;;;;25.67;13.73;;;6.70;99.90;;;;;;5106890;28;20046;-70
2022/11/18 08:52:09;;;;;;;25.52;15.27;;;6.70;99.90;;;;;;5107533;28;20327;-70
2022/11/18 08:54:35;;;;;;;24.98;14.60;;;6.70;99.90;;;;;;5075977;28;20489;-71
2022/11/18 08:57:01;;;;;;;28.95;17.90;;;6.70;99.90;;;;;;5106435;28;20047;-71
2022/11/18 08:59:26;;;;;;;37.33;22.77;;;6.80;99.90;;;;;;5108260;28;20072;-70
2022/11/18 09:01:52;;;;;;;27.15;15.60;;;6.80;99.90;;;;;;5106666;28;20178;-71
2022/11/18 09:04:18;;;;;;;31.70;19.13;;;6.80;99.90;;;;;;5110950;28;20488;-70
2022/11/18 09:06:44;;;;;;;25.38;14.30;;;6.80;99.90;;;;;;5110983;28;20046;-69
2022/11/18 09:09:09;;;;;;;25.33;15.13;;;6.80;99.90;;;;;;5110437;28;20043;-70
2022/11/18 09:11:37;;;;;;;24.13;14.85;;;6.80;99.90;;;;;;5111007;28;20043;-69
2022/11/18 09:14:03;;;;;;;32.17;16.98;;;6.80;99.90;;;;;;5110359;28;20496;-67
2022/11/18 09:16:30;;;;;;;21.17;12.48;;;6.80;99.90;;;;;;5109760;28;20043;-68
2022/11/18 09:18:57;;;;;;;24.92;14.15;;;6.80;99.90;;;;;;5089561;28;20039;-66
2022/11/18 09:21:23;;;;;;;24.25;12.63;;;6.80;99.90;;;;;;5107205;28;20040;-66
2022/11/18 09:23:48;;;;;;;19.75;11.18;;;6.80;99.90;;;;;;5110252;28;20042;-68
2022/11/18 09:26:18;;;;;;;22.70;12.25;;;6.80;99.90;;;;;;5112475;28;20073;-68
2022/11/18 09:28:44;;;;;;;27.17;14.00;;;6.80;99.90;;;;;;5109561;28;20081;-70
2022/11/18 09:31:12;;;;;;;22.40;12.85;;;6.80;99.90;;;;;;5111247;28;20052;-68
2022/11/18 09:33:38;;;;;;;33.55;18.77;;;6.80;99.90;;;;;;5112375;28;20065;-68
2022/11/18 09:36:09;;;;;;;49.08;29.92;;;6.80;99.90;;;;;;5110485;28;20036;-69
2022/11/18 09:38:35;;;;;;;27.00;16.08;;;6.80;99.90;;;;;;5110941;28;20036;-69
2022/11/18 09:41:26;;;;;;;26.15;17.88;;;6.80;99.90;;;;;;5093538;28;20028;-68
2022/11/18 09:44:16;;;;;;;20.92;13.30;;;6.80;99.90;;;;;;5109754;28;20035;-68
2022/11/18 09:46:56;;;;;;;20.98;12.80;;;6.80;99.90;;;;;;5110604;28;20039;-68
2022/11/18 09:49:42;;;;;;;19.50;12.85;;;6.80;99.90;;;;;;5110388;28;20036;-68
2022/11/18 09:52:11;;;;;;;20.80;11.43;;;6.80;99.90;;;;;;5110201;28;20031;-68
2022/11/18 09:54:37;;;;;;;20.98;12.25;;;6.70;99.90;;;;;;5112201;28;20511;-68
2022/11/18 09:57:19;;;;;;;22.02;12.40;;;6.70;99.90;;;;;;5113231;28;20523;-69
2022/11/18 09:59:45;;;;;;;17.23;9.88;;;6.70;99.90;;;;;;5113712;28;20044;-69
2022/11/18 10:02:39;;;;;;;18.75;10.50;;;6.80;99.90;;;;;;5115395;28;20460;-68
2022/11/18 10:05:23;;;;;;;15.65;9.70;;;6.80;99.90;;;;;;5112561;28;21305;-68
2022/11/18 10:08:01;;;;;;;20.58;10.38;;;6.70;99.90;;;;;;5077664;28;20063;-68
2022/11/18 10:10:33;;;;;;;20.50;11.48;;;6.70;99.90;;;;;;5112147;28;20031;-69
2022/11/18 10:13:24;;;;;;;17.38;10.00;;;6.70;99.90;;;;;;5096180;28;20128;-69
2022/11/18 10:16:04;;;;;;;16.20;9.65;;;6.70;99.90;;;;;;5113883;28;20449;-69
2022/11/18 10:19:08;;;;;;;17.50;10.52;;;6.70;99.90;;;;;;5112877;28;20039;-69
2022/11/18 10:21:49;;;;;;;16.90;10.48;;;6.70;99.90;;;;;;5083513;28;20404;-67
2022/11/18 10:24:39;;;;;;;18.20;10.90;;;6.70;99.90;;;;;;5113681;28;20051;-69
2022/11/18 10:27:12;;;;;;;16.58;10.50;;;6.60;99.90;;;;;;5113357;28;20564;-67
2022/11/18 10:29:38;;;;;;;15.55;9.77;;;6.60;99.90;;;;;;5113547;28;20039;-69
2022/11/18 10:32:10;;;;;;;17.02;10.40;;;6.60;99.90;;;;;;5112822;28;20032;-68
2022/11/18 10:34:53;;;;;;;17.50;9.43;;;6.70;99.90;;;;;;5114296;28;20458;-69
2022/11/18 10:37:24;;;;;;;17.52;8.80;;;6.60;99.90;;;;;;5096124;28;20044;-69
2022/11/18 10:39:54;;;;;;;15.23;8.88;;;6.60;99.90;;;;;;5112520;28;20040;-69
2022/11/18 10:42:28;;;;;;;15.77;8.95;;;6.60;99.90;;;;;;5113370;28;20044;-69
2022/11/18 10:44:54;;;;;;;20.95;12.70;;;6.60;99.90;;;;;;5095959;28;20046;-69
2022/11/18 10:47:28;;;;;;;15.65;8.48;;;6.60;99.90;;;;;;5095976;28;20110;-69
2022/11/18 10:49:56;;;;;;;15.45;9.13;;;6.60;99.90;;;;;;5112183;28;20043;-69
2022/11/18 10:52:23;;;;;;;16.88;9.85;;;6.50;99.90;;;;;;5112464;28;20489;-70
2022/11/18 10:55:18;;;;;;;17.95;10.00;;;6.50;99.90;;;;;;5112190;28;20054;-69
2022/11/18 10:57:45;;;;;;;18.08;9.15;;;6.50;99.90;;;;;;5109105;28;20038;-69
2022/11/18 11:00:33;;;;;;;17.85;9.63;;;6.50;99.90;;;;;;5110214;28;20035;-69
2022/11/18 11:02:59;;;;;;;;;;;6.50;99.90;;;;;;5109748;28;20039;-69
2022/11/18 11:05:25;;;;;;;16.02;9.23;;;6.50;99.90;;;;;;5110207;28;19924;-69
2022/11/18 11:08:20;;;;;;;18.35;8.57;;;6.40;99.90;;;;;;5110202;28;20059;-69
2022/11/18 11:10:57;;;;;;;17.98;10.00;;;6.50;99.90;;;;;;5091311;28;20040;-69
2022/11/18 11:13:26;;;;;;;18.98;8.82;;;6.40;99.90;;;;;;5094058;28;20048;-69
2022/11/18 11:15:55;;;;;;;17.27;8.45;;;6.40;99.90;;;;;;5098863;28;20043;-69
2022/11/18 11:18:43;;;;;;;13.63;8.05;;;6.40;99.90;;;;;;5111175;28;20104;-69
2022/11/18 11:21:12;;;;;;;14.25;9.05;;;6.40;99.90;;;;;;5107698;28;20079;-69
2022/11/18 11:23:38;;;;;;;14.38;8.32;;;6.30;99.90;;;;;;5110446;28;20380;-69
2022/11/18 11:26:34;;;;;;;14.80;8.35;;;6.30;99.90;;;;;;5093229;28;20039;-69
2022/11/18 11:29:31;;;;;;;14.88;8.25;;;6.30;99.90;;;;;;5110619;28;20518;-69
2022/11/18 11:32:40;;;;;;;15.85;9.40;;;6.30;99.90;;;;;;5109768;28;20086;-69
2022/11/18 11:35:05;;;;;;;18.70;10.43;;;6.30;99.90;;;;;;5110156;28;20051;-69
2022/11/18 11:37:57;;;;;;;17.02;10.10;;;6.30;99.90;;;;;;5108040;28;20428;-69
2022/11/18 11:40:36;;;;;;;18.42;9.90;;;6.30;99.90;;;;;;5089605;28;20105;-69
2022/11/18 11:43:26;;;;;;;19.70;10.77;;;6.20;99.90;;;;;;5091852;28;20032;-69
2022/11/18 11:46:07;;;;;;;18.70;10.60;;;6.20;99.90;;;;;;5106821;28;20054;-69
2022/11/18 11:48:56;;;;;;;21.25;11.40;;;6.20;99.90;;;;;;5110621;28;20047;-69
2022/11/18 11:51:33;;;;;;;20.80;13.75;;;6.20;99.90;;;;;;5108628;28;20044;-69
2022/11/18 11:54:13;;;;;;;39.65;19.88;;;6.10;99.90;;;;;;5110317;28;20043;-69
2022/11/18 11:56:54;;;;;;;44.42;23.88;;;6.10;99.90;;;;;;5103317;28;20074;-69
2022/11/18 11:59:48;;;;;;;23.77;14.02;;;6.10;99.90;;;;;;5107410;28;20046;-66
2022/11/18 12:02:32;;;;;;;19.05;11.15;;;6.00;99.90;;;;;;5106954;28;20045;-67
2022/11/18 12:05:09;;;;;;;15.25;9.55;;;6.00;99.90;;;;;;5108313;28;20039;-66
2022/11/18 12:07:44;;;;;;;17.42;11.07;;;6.00;99.90;;;;;;5108976;28;20043;-67
2022/11/18 12:10:28;;;;;;;18.98;11.80;;;6.10;99.90;;;;;;5104326;28;20097;-66
2022/11/18 12:13:18;;;;;;;19.48;11.27;;;6.10;99.90;;;;;;5104848;28;20149;-66
2022/11/18 12:15:49;;;;;;;17.10;9.55;;;6.00;99.90;;;;;;5103294;28;20117;-67
2022/11/18 12:18:18;;;;;;;16.85;8.63;;;6.00;99.90;;;;;;5090657;28;20040;-66
2022/11/18 12:20:48;;;;;;;16.05;9.93;;;6.00;99.90;;;;;;5083462;28;20036;-66
2022/11/18 12:23:20;;;;;;;19.10;11.77;;;5.90;99.90;;;;;;5108824;28;20433;-66
2022/11/18 12:25:54;;;;;;;19.85;12.75;;;5.90;99.90;;;;;;5099481;28;20040;-66
2022/11/18 12:28:42;;;;;;;21.27;11.63;;;5.80;99.90;;;;;;5083600;28;20054;-66
2022/11/18 12:31:17;;;;;;;18.90;10.38;;;5.80;99.90;;;;;;5107427;28;20059;-66
2022/11/18 12:34:05;;;;;;;18.60;11.10;;;5.80;99.90;;;;;;5106901;28;20066;-66
2022/11/18 12:36:38;;;;;;;16.52;9.95;;;5.80;99.90;;;;;;5104836;28;20116;-66
2022/11/18 12:39:22;;;;;;;19.77;10.38;;;5.80;99.90;;;;;;5107145;28;20047;-66
2022/11/18 12:44:54;;;;;;;19.08;10.95;;;5.70;99.90;;;;;;5107936;28;20048;-66
2022/11/18 12:47:41;;;;;;;20.73;11.40;;;5.70;99.90;;;;;;5107070;28;20078;-66
2022/11/18 12:50:14;;;;;;;21.17;11.57;;;5.70;99.90;;;;;;5108628;28;20048;-67
2022/11/18 12:52:40;;;;;;;23.25;11.45;;;5.80;99.90;;;;;;5108052;28;20126;-66
2022/11/18 12:55:36;;;;;;;19.48;11.10;;;5.80;99.90;;;;;;5108178;28;20062;-66
2022/11/18 12:58:01;;;;;;;20.50;11.93;;;5.80;99.90;;;;;;5103863;28;20075;-66
2022/11/18 13:00:29;;;;;;;22.45;12.55;;;5.80;99.90;;;;;;5106833;28;20067;-66
2022/11/18 13:03:00;;;;;;;22.67;14.05;;;5.80;99.90;;;;;;5107565;28;20429;-66
2022/11/18 13:05:35;;;;;;;24.50;14.07;;;5.70;99.90;;;;;;5088445;28;20047;-66
2022/11/18 13:08:12;;;;;;;30.92;16.75;;;5.80;99.90;;;;;;5089958;28;20047;-67
2022/11/18 13:13:41;;;;;;;23.83;14.05;;;5.70;99.90;;;;;;5101636;28;20382;-66
2022/11/18 13:19:22;;;;;;;18.15;10.50;;;5.50;99.90;;;;;;5097585;28;20040;-66
2022/11/18 13:24:46;;;;;;;16.67;9.70;;;5.50;99.90;;;;;;5102698;28;20504;-66